Dunaire, Georgia
Current Conditions -  °F | °C
As of 11:53 AM on Thursday 27 Nov 2014 (Local Time) from KPDK Reporting Station
Overcast Overcast  
Wind Chill: 37°   Ceiling: 3500
Heat Index: 45°   Visibility: 10mi
Dew Point: 29°   Wind: 18mph
Humidity: 53%   Direction: 320°NW
Pressure: 30.28"   Gusts: 24mph
Location:  33.7391°N, 84.2645°W
Report Text: KPDK 271653Z 32016G21KT 10SM BKN035 OVC045 07/M02 A3028 RMK AO2 SLP262 T00721017
Loading
Personal Weather Stations






























Interactive Weather Map New forecast layout! Learn more

10-Day Weather Forecast

Advertisements
Track Severe Weather on mobile